Time;durP1;ratioP1;P1;durP2;ratioP2;P2;SDS_P1;SDS_P2;PMS_P1;PMS_P2;Temp;Humidity;BMP_temperature;BMP_pressure;BME280_temperature;BME280_humidity;BME280_pressure;Samples;Min_cycle;Max_cycle;Signal;HPM_P1;HPM_P2
2021/10/24 00:02:03;;;;;;;0.55;0.47;;;;;;;25.83;33.13;97604.59;5073879;28;20035;-32
2021/10/24 00:04:28;;;;;;;1.17;0.70;;;;;;;25.82;33.22;97600.25;5072762;28;20515;-33
2021/10/24 00:06:53;;;;;;;0.50;0.50;;;;;;;25.83;33.07;97612.47;5072426;28;20032;-30
2021/10/24 00:09:19;;;;;;;0.63;0.40;;;;;;;25.82;33.22;97610.75;5074945;28;20032;-36
2021/10/24 00:11:45;;;;;;;1.23;0.80;;;;;;;25.81;33.16;97609.06;5072072;28;20025;-32
2021/10/24 00:14:10;;;;;;;0.70;0.50;;;;;;;25.81;33.22;97614.31;5072110;28;20031;-32
2021/10/24 00:16:35;;;;;;;1.23;0.70;;;;;;;25.81;33.26;97611.69;5071402;28;20252;-30
2021/10/24 00:19:01;;;;;;;1.00;0.70;;;;;;;25.81;33.15;97609.06;5072784;28;20040;-31
2021/10/24 00:21:26;;;;;;;0.88;0.60;;;;;;;25.81;33.20;97613.44;5072471;28;20056;-35
2021/10/24 00:23:52;;;;;;;0.65;0.60;;;;;;;25.80;33.17;97607.34;5071588;28;20028;-34
2021/10/24 00:26:17;;;;;;;0.80;0.57;;;;;;;25.81;33.11;97602.94;5071460;28;20020;-29
2021/10/24 00:28:43;;;;;;;0.60;0.60;;;;;;;25.80;33.23;97602.09;5071540;28;20059;-35
2021/10/24 00:31:08;;;;;;;0.65;0.65;;;;;;;25.78;33.25;97603.91;5068118;28;20082;-29
2021/10/24 00:33:34;;;;;;;0.60;0.60;;;;;;;25.79;33.23;97597.78;5070410;28;20024;-30
2021/10/24 00:36:00;;;;;;;0.40;0.40;;;;;;;25.79;33.14;97589.91;5070258;28;20598;-28
2021/10/24 00:38:25;;;;;;;0.82;0.60;;;;;;;25.80;33.30;97590.75;5069468;28;20033;-29
2021/10/24 00:40:51;;;;;;;0.60;0.60;;;;;;;25.79;33.22;97579.41;5069795;28;20040;-31
2021/10/24 00:43:16;;;;;;;0.55;0.55;;;;;;;25.78;33.15;97582.91;5071503;28;20271;-31
2021/10/24 00:45:42;;;;;;;1.02;0.77;;;;;;;25.79;33.16;97582.03;5066889;28;20529;-32
2021/10/24 00:48:07;;;;;;;0.65;0.65;;;;;;;25.79;33.11;97586.41;5067633;28;20032;-32
2021/10/24 00:50:33;;;;;;;0.60;0.52;;;;;;;25.78;33.16;97575.03;5070872;28;20024;-33
2021/10/24 00:52:59;;;;;;;0.90;0.60;;;;;;;25.78;32.95;97582.91;5069428;28;20040;-30
2021/10/24 00:55:24;;;;;;;0.50;0.50;;;;;;;25.79;33.02;97578.53;5069398;28;20056;-33
2021/10/24 00:57:50;;;;;;;0.65;0.60;;;;;;;25.77;33.08;97570.72;5077097;28;20031;-31
2021/10/24 01:00:16;;;;;;;0.63;0.52;;;;;;;25.78;33.06;97571.59;5083777;28;20024;-32
2021/10/24 01:02:42;;;;;;;0.40;0.40;;;;;;;25.78;33.11;97566.34;5075514;28;20127;-34
2021/10/24 01:05:08;;;;;;;1.08;0.57;;;;;;;25.78;33.19;97553.22;5070599;28;20069;-30
2021/10/24 01:07:34;;;;;;;0.80;0.50;;;;;;;25.76;33.01;97555.88;5066033;28;20457;-29
2021/10/24 01:10:00;;;;;;;0.50;0.50;;;;;;;25.77;33.16;97560.22;5068911;28;20044;-33
2021/10/24 01:12:25;;;;;;;0.50;0.50;;;;;;;25.76;33.20;97563.75;5069334;28;20028;-33
2021/10/24 01:14:51;;;;;;;0.50;0.50;;;;;;;25.76;33.08;97557.66;5069598;28;20036;-33
2021/10/24 01:17:17;;;;;;;0.40;0.40;;;;;;;25.75;33.04;97555.94;5053578;28;20031;-29
2021/10/24 01:19:42;;;;;;;0.77;0.50;;;;;;;25.75;33.13;97556.81;5087379;28;20099;-28
2021/10/24 01:22:08;;;;;;;0.93;0.50;;;;;;;25.75;33.20;97555.94;5068089;28;20047;-29
2021/10/24 01:24:33;;;;;;;1.08;0.70;;;;;;;25.76;33.04;97549.78;5072255;28;20046;-31
2021/10/24 01:26:59;;;;;;;0.50;0.50;;;;;;;25.74;33.03;97555.09;5067931;28;20029;-33
2021/10/24 01:29:24;;;;;;;0.60;0.57;;;;;;;25.75;33.16;97550.69;5069841;28;20470;-37
2021/10/24 01:31:50;;;;;;;0.55;0.50;;;;;;;25.72;33.19;97545.56;5069832;28;20553;-32
2021/10/24 01:34:16;;;;;;;0.90;0.50;;;;;;;25.74;33.18;97543.75;5068761;28;20024;-30
2021/10/24 01:36:42;;;;;;;0.47;0.40;;;;;;;25.73;33.17;97542.88;5069533;28;20088;-31
2021/10/24 01:39:07;;;;;;;0.50;0.50;;;;;;;25.74;33.27;97554.25;5069287;28;20032;-32
2021/10/24 01:41:32;;;;;;;0.63;0.63;;;;;;;25.74;33.11;97543.75;5065716;28;20070;-36
2021/10/24 01:43:58;;;;;;;0.80;0.60;;;;;;;25.73;33.06;97537.63;5067134;28;20567;-32
2021/10/24 01:46:23;;;;;;;0.55;0.50;;;;;;;25.73;33.16;97540.25;5067159;28;20755;-33
2021/10/24 01:48:49;;;;;;;1.95;0.50;;;;;;;25.73;33.01;97542.03;5070034;28;20037;-31
2021/10/24 01:51:15;;;;;;;0.45;0.45;;;;;;;25.72;33.10;97533.31;5071204;28;20039;-33
2021/10/24 01:53:41;;;;;;;0.88;0.60;;;;;;;25.72;33.13;97541.19;5051736;28;20029;-33
2021/10/24 01:56:06;;;;;;;0.57;0.50;;;;;;;25.71;33.02;97542.09;5067110;28;20445;-35
2021/10/24 01:58:32;;;;;;;0.50;0.50;;;;;;;25.70;33.14;97533.34;5068768;28;20028;-32
2021/10/24 02:00:57;;;;;;;0.40;0.40;;;;;;;25.69;33.07;97531.66;5070227;28;20027;-32
2021/10/24 02:03:23;;;;;;;0.60;0.50;;;;;;;25.70;33.19;97532.50;5067016;28;20466;-32
2021/10/24 02:05:48;;;;;;;0.90;0.50;;;;;;;25.69;33.13;97528.16;5070000;28;20196;-30
2021/10/24 02:08:14;;;;;;;0.57;0.50;;;;;;;25.69;32.98;97520.28;5069940;28;20526;-32
2021/10/24 02:10:40;;;;;;;0.70;0.60;;;;;;;25.69;33.07;97520.28;5070580;28;20118;-33
2021/10/24 02:13:05;;;;;;;0.52;0.43;;;;;;;25.69;33.17;97509.78;5069163;28;20035;-32
2021/10/24 02:15:31;;;;;;;1.02;0.57;;;;;;;25.68;33.12;97513.34;5067631;28;20465;-31
2021/10/24 02:17:57;;;;;;;0.40;0.40;;;;;;;25.68;33.07;97506.34;5068703;28;20031;-33
2021/10/24 02:20:22;;;;;;;0.68;0.60;;;;;;;25.67;33.08;97495.88;5067940;28;20031;-31
2021/10/24 02:22:48;;;;;;;0.60;0.50;;;;;;;25.67;33.08;97501.97;5068383;28;20024;-34
2021/10/24 02:25:13;;;;;;;1.08;0.60;;;;;;;25.67;33.15;97511.66;5068863;28;20024;-34
2021/10/24 02:27:38;;;;;;;0.47;0.47;;;;;;;25.66;33.02;97513.41;5068606;28;20073;-34
2021/10/24 02:30:05;;;;;;;0.57;0.47;;;;;;;25.66;33.14;97500.28;5068387;28;20486;-31
2021/10/24 02:32:30;;;;;;;0.40;0.40;;;;;;;25.65;33.11;97492.47;5069067;28;20127;-32
2021/10/24 02:34:56;;;;;;;0.50;0.40;;;;;;;25.66;33.20;97499.44;5070169;28;20029;-34
2021/10/24 02:37:21;;;;;;;0.45;0.40;;;;;;;25.67;33.04;97490.66;5053467;28;20023;-34
2021/10/24 02:39:47;;;;;;;0.38;0.38;;;;;;;25.65;33.23;97493.31;5067046;28;20028;-31
2021/10/24 02:42:12;;;;;;;0.63;0.50;;;;;;;25.65;33.12;97490.69;5066838;28;20046;-35
2021/10/24 02:44:37;;;;;;;0.82;0.47;;;;;;;25.65;33.17;97484.59;5068542;28;20542;-34
2021/10/24 02:47:03;;;;;;;0.50;0.50;;;;;;;25.65;33.05;97493.31;5067037;28;20029;-30
2021/10/24 02:49:29;;;;;;;0.30;0.30;;;;;;;25.64;33.02;97489.00;5066685;28;20029;-32
2021/10/24 02:51:54;;;;;;;0.50;0.43;;;;;;;25.64;33.02;97493.38;5069503;28;20032;-32
2021/10/24 02:54:19;;;;;;;0.50;0.50;;;;;;;25.63;33.18;97494.31;5067639;28;20028;-31
2021/10/24 02:56:45;;;;;;;0.40;0.40;;;;;;;25.63;33.13;97489.06;5053688;28;20028;-29
2021/10/24 02:59:11;;;;;;;0.63;0.60;;;;;;;25.64;33.19;97490.75;5083557;28;20032;-35
2021/10/24 03:01:36;;;;;;;0.38;0.30;;;;;;;25.63;33.05;97489.91;5068611;28;20441;-31
2021/10/24 03:04:02;;;;;;;0.68;0.50;;;;;;;25.63;33.13;97486.44;5065175;28;20925;-33
2021/10/24 03:06:27;;;;;;;0.55;0.55;;;;;;;25.63;32.96;97494.31;5068427;28;20085;-31
2021/10/24 03:08:53;;;;;;;0.32;0.30;;;;;;;25.62;33.14;97487.38;5066448;28;20063;-29
2021/10/24 03:11:19;;;;;;;0.68;0.40;;;;;;;25.62;33.07;97488.19;5069146;28;20063;-33
2021/10/24 03:13:44;;;;;;;0.40;0.40;;;;;;;25.62;33.07;97487.38;5063913;28;20463;-34
2021/10/24 03:16:10;;;;;;;0.40;0.40;;;;;;;25.61;32.99;97485.63;5069524;28;20039;-32
2021/10/24 03:18:35;;;;;;;0.50;0.50;;;;;;;25.61;32.97;97475.13;5063871;28;20406;-33
2021/10/24 03:21:00;;;;;;;0.40;0.40;;;;;;;25.61;32.95;97475.13;5069636;28;20044;-29
2021/10/24 03:23:26;;;;;;;0.30;0.30;;;;;;;25.61;33.04;97485.63;5069432;28;20012;-34
2021/10/24 03:25:51;;;;;;;0.55;0.47;;;;;;;25.61;33.13;97481.25;5066531;28;20044;-31
2021/10/24 03:28:17;;;;;;;0.47;0.40;;;;;;;25.61;33.04;97486.50;5067165;28;20043;-31
2021/10/24 03:30:42;;;;;;;0.40;0.40;;;;;;;25.61;33.10;97480.38;5068942;28;20499;-33
2021/10/24 03:33:07;;;;;;;0.50;0.40;;;;;;;25.61;32.90;97480.38;5071803;28;20036;-32
2021/10/24 03:35:33;;;;;;;0.30;0.30;;;;;;;25.60;32.99;97478.69;5071285;28;20055;-33
2021/10/24 03:37:58;;;;;;;0.75;0.50;;;;;;;25.60;33.05;97482.16;5065687;28;20032;-29
2021/10/24 03:40:24;;;;;;;0.73;0.50;;;;;;;25.59;33.08;97488.31;5072556;28;20020;-29
2021/10/24 03:42:49;;;;;;;1.00;0.50;;;;;;;25.59;33.25;97496.19;5066415;28;20055;-29
2021/10/24 03:45:14;;;;;;;0.40;0.40;;;;;;;25.57;32.96;97498.91;5072204;28;20036;-32
2021/10/24 03:47:40;;;;;;;0.40;0.40;;;;;;;25.52;33.02;97482.44;5070182;28;20039;-34
2021/10/24 03:50:06;;;;;;;0.50;0.40;;;;;;;25.57;33.02;97495.41;5073050;28;20028;-30
2021/10/24 03:52:31;;;;;;;0.75;0.40;;;;;;;25.57;33.17;97500.66;5071697;28;20032;-33
2021/10/24 03:54:57;;;;;;;0.68;0.45;;;;;;;25.56;33.16;97494.53;5070132;28;20371;-30
2021/10/24 03:57:22;;;;;;;0.32;0.30;;;;;;;25.57;33.04;97495.41;5070757;28;20033;-31
2021/10/24 03:59:47;;;;;;;0.35;0.30;;;;;;;25.56;33.07;97497.16;5072724;28;20478;-34
2021/10/24 04:02:13;;;;;;;0.40;0.40;;;;;;;25.57;33.01;97495.41;5072754;28;20057;-36
2021/10/24 04:04:39;;;;;;;0.52;0.40;;;;;;;25.56;33.09;97499.78;5072572;28;20078;-35
2021/10/24 04:07:04;;;;;;;0.60;0.50;;;;;;;25.55;32.99;97492.81;5070180;28;20090;-28
2021/10/24 04:09:30;;;;;;;0.40;0.40;;;;;;;25.55;33.10;97495.44;5072775;28;20500;-31
2021/10/24 04:11:56;;;;;;;0.40;0.40;;;;;;;25.54;33.15;97493.72;5071739;28;20028;-33
2021/10/24 04:14:24;;;;;;;0.93;0.50;;;;;;;25.54;32.93;97496.34;5072455;28;20468;-33
2021/10/24 04:16:49;;;;;;;0.40;0.40;;;;;;;25.52;33.02;97492.94;5071643;28;20058;-36
2021/10/24 04:19:15;;;;;;;0.82;0.47;;;;;;;25.53;32.98;97494.66;5068802;28;20126;-33
2021/10/24 04:21:40;;;;;;;0.47;0.30;;;;;;;25.53;33.11;97481.53;5071041;28;20023;-34
2021/10/24 04:24:06;;;;;;;0.98;0.50;;;;;;;25.52;33.16;97489.47;5067723;28;20424;-35
2021/10/24 04:26:32;;;;;;;0.60;0.40;;;;;;;25.53;33.23;97493.78;5086443;28;20036;-31
2021/10/24 04:28:57;;;;;;;0.50;0.40;;;;;;;25.53;33.00;97494.66;5069060;28;20365;-32
2021/10/24 04:31:22;;;;;;;0.28;0.28;;;;;;;25.53;33.15;97493.78;5070343;28;20036;-32
2021/10/24 04:33:48;;;;;;;0.50;0.40;;;;;;;25.52;32.87;97492.94;5065268;28;20051;-30
2021/10/24 04:36:13;;;;;;;0.40;0.40;;;;;;;25.52;33.14;97487.69;5070984;28;20024;-32
2021/10/24 04:38:39;;;;;;;0.40;0.40;;;;;;;25.52;33.08;97490.31;5070689;28;20016;-33
2021/10/24 04:41:04;;;;;;;0.90;0.47;;;;;;;25.51;33.05;97485.97;5071050;28;20028;-32
2021/10/24 04:43:29;;;;;;;0.13;0.13;;;;;;;25.50;33.05;97486.91;5069844;28;20020;-34
2021/10/24 04:45:55;;;;;;;0.30;0.30;;;;;;;25.51;33.15;97491.22;5076143;28;20042;-30
2021/10/24 04:48:21;;;;;;;1.40;0.38;;;;;;;25.50;32.99;97489.53;5070661;28;20022;-33
2021/10/24 04:50:46;;;;;;;0.43;0.30;;;;;;;25.50;33.20;97489.53;5070933;28;20101;-30
2021/10/24 04:53:12;;;;;;;0.38;0.38;;;;;;;25.50;32.92;97489.53;5076842;28;20035;-35
2021/10/24 04:55:37;;;;;;;0.50;0.40;;;;;;;25.49;33.18;97482.56;5056428;28;20032;-32
2021/10/24 04:58:03;;;;;;;0.22;0.22;;;;;;;25.49;33.14;97487.81;5069507;28;20031;-32
2021/10/24 05:00:28;;;;;;;0.43;0.43;;;;;;;25.48;33.14;97486.13;5071170;28;20077;-33
2021/10/24 05:02:53;;;;;;;0.20;0.20;;;;;;;25.48;33.18;97480.88;5069220;28;20036;-30
2021/10/24 05:05:19;;;;;;;0.75;0.35;;;;;;;25.48;33.16;97480.00;5073509;28;20148;-34
2021/10/24 05:07:44;;;;;;;0.30;0.30;;;;;;;25.48;32.96;97480.88;5069437;28;20502;-31
2021/10/24 05:10:10;;;;;;;0.30;0.30;;;;;;;25.47;32.96;97481.78;5069378;28;20028;-31
2021/10/24 05:12:35;;;;;;;0.60;0.50;;;;;;;25.48;33.13;97475.63;5070200;28;20639;-34
2021/10/24 05:15:01;;;;;;;0.93;0.40;;;;;;;25.47;33.12;97479.16;5067755;28;20032;-29
2021/10/24 05:17:26;;;;;;;0.40;0.35;;;;;;;25.47;33.04;97467.81;5067079;28;21346;-33
2021/10/24 05:19:52;;;;;;;0.30;0.30;;;;;;;25.46;33.05;97461.69;5070867;28;20759;-30
2021/10/24 05:22:20;;;;;;;0.40;0.30;;;;;;;25.44;33.08;97463.56;5070223;28;20194;-31
2021/10/24 05:24:45;;;;;;;0.30;0.30;;;;;;;25.45;33.17;97466.09;5085544;28;20030;-33
2021/10/24 05:27:10;;;;;;;0.30;0.30;;;;;;;25.46;33.02;97461.69;5067150;28;20032;-35
2021/10/24 05:29:36;;;;;;;0.60;0.40;;;;;;;25.46;32.92;97466.94;5069348;28;20419;-32
2021/10/24 05:32:01;;;;;;;1.70;0.32;;;;;;;25.47;32.92;97467.81;5068189;28;20928;-34
2021/10/24 05:34:27;;;;;;;0.40;0.40;;;;;;;25.45;33.02;97465.25;5069916;28;20036;-32
2021/10/24 05:36:52;;;;;;;0.60;0.50;;;;;;;25.45;33.06;97463.47;5068595;28;20041;-35
2021/10/24 05:39:18;;;;;;;0.20;0.20;;;;;;;25.45;33.08;97460.00;5068247;28;20035;-36
2021/10/24 05:41:43;;;;;;;0.28;0.28;;;;;;;25.45;33.07;97460.84;5066669;28;20578;-32
2021/10/24 05:44:09;;;;;;;0.30;0.30;;;;;;;25.44;33.07;97458.31;5067549;28;20017;-33
2021/10/24 05:46:34;;;;;;;0.43;0.30;;;;;;;25.45;32.99;97454.75;5071846;28;20028;-32
2021/10/24 05:49:01;;;;;;;0.35;0.30;;;;;;;25.43;32.98;97459.19;5069332;28;20032;-30
2021/10/24 05:51:27;;;;;;;0.40;0.40;;;;;;;25.42;33.04;97450.50;5070578;28;20020;-33
2021/10/24 05:53:52;;;;;;;0.20;0.20;;;;;;;25.44;33.05;97458.31;5067318;28;20033;-30
2021/10/24 05:56:18;;;;;;;0.28;0.28;;;;;;;25.43;33.04;97451.31;5068038;28;20024;-29
2021/10/24 05:58:43;;;;;;;0.30;0.30;;;;;;;25.42;33.01;97454.88;5071540;28;20036;-34
2021/10/24 06:01:09;;;;;;;0.40;0.40;;;;;;;25.42;32.99;97461.00;5069435;28;20032;-33
2021/10/24 06:03:35;;;;;;;0.38;0.38;;;;;;;25.43;33.06;97464.44;5068813;28;20023;-31
2021/10/24 06:06:00;;;;;;;0.43;0.40;;;;;;;25.42;33.10;97454.88;5068237;28;20645;-31
2021/10/24 06:08:27;;;;;;;0.30;0.30;;;;;;;25.41;33.07;97456.66;5068363;28;20024;-31
2021/10/24 06:10:54;;;;;;;0.80;0.45;;;;;;;25.41;32.99;97453.16;5068514;28;20036;-29
2021/10/24 06:13:19;;;;;;;0.20;0.20;;;;;;;25.41;33.01;97468.91;5070439;28;20055;-35
2021/10/24 06:15:46;;;;;;;0.43;0.30;;;;;;;25.41;33.04;97458.41;5068624;28;20503;-31
2021/10/24 06:18:11;;;;;;;0.30;0.30;;;;;;;25.40;32.92;97468.06;5083364;28;20067;-33
2021/10/24 06:20:36;;;;;;;0.32;0.32;;;;;;;25.40;33.12;97465.44;5070561;28;20031;-30
2021/10/24 06:23:02;;;;;;;0.43;0.40;;;;;;;25.40;32.94;97468.06;5069176;28;20969;-33
2021/10/24 06:25:27;;;;;;;0.30;0.30;;;;;;;25.40;33.01;97475.09;5069510;28;20032;-34
2021/10/24 06:27:53;;;;;;;0.20;0.20;;;;;;;25.39;33.03;97471.59;5068894;28;20122;-32
2021/10/24 06:30:21;;;;;;;0.32;0.30;;;;;;;25.40;33.04;97469.84;5068166;28;20493;-32
2021/10/24 06:32:47;;;;;;;0.43;0.40;;;;;;;25.40;32.88;97472.47;5070392;28;20035;-30
2021/10/24 06:35:12;;;;;;;0.50;0.50;;;;;;;25.40;33.07;97472.47;5068044;28;20034;-33
2021/10/24 06:37:43;;;;;;;0.32;0.32;;;;;;;25.40;33.22;97472.47;5070042;28;20028;-33
2021/10/24 06:40:08;;;;;;;0.68;0.57;;;;;;;25.40;32.95;97472.47;5077089;28;20514;-35
2021/10/24 06:42:34;;;;;;;0.40;0.35;;;;;;;25.39;32.89;97476.84;5066335;28;20112;-34
2021/10/24 06:44:59;;;;;;;0.45;0.40;;;;;;;25.40;33.00;97467.22;5064087;28;20043;-32
2021/10/24 06:47:25;;;;;;;0.43;0.30;;;;;;;25.40;33.18;97472.47;5067314;28;20027;-31
2021/10/24 06:49:50;;;;;;;0.50;0.50;;;;;;;25.41;33.10;97475.03;5065666;28;20664;-33
2021/10/24 06:52:16;;;;;;;0.38;0.38;;;;;;;25.42;33.19;97479.34;5066781;28;20032;-33
2021/10/24 06:54:41;;;;;;;0.25;0.25;;;;;;;25.44;33.21;97479.28;5064344;28;20028;-30
2021/10/24 06:57:06;;;;;;;0.30;0.30;;;;;;;25.43;33.09;97478.44;5067755;28;20038;-33
2021/10/24 06:59:32;;;;;;;0.63;0.30;;;;;;;25.44;33.15;97479.28;5068111;28;20036;-31
2021/10/24 07:01:57;;;;;;;0.73;0.47;;;;;;;25.44;33.16;97474.03;5064194;28;20040;-29
2021/10/24 07:04:22;;;;;;;0.30;0.30;;;;;;;25.45;33.31;97478.38;5068214;28;20089;-32
2021/10/24 07:06:48;;;;;;;0.30;0.30;;;;;;;25.45;33.28;97476.59;5062291;28;20584;-32
2021/10/24 07:09:13;;;;;;;0.55;0.40;;;;;;;25.47;33.23;97479.16;5067088;28;20032;-32
2021/10/24 07:11:39;;;;;;;0.28;0.28;;;;;;;25.47;33.30;97483.56;5067403;28;20017;-28
2021/10/24 07:14:04;;;;;;;0.40;0.40;;;;;;;25.47;33.30;97470.44;5068864;28;20027;-30
2021/10/24 07:16:29;;;;;;;0.30;0.30;;;;;;;25.47;33.17;97479.16;5072056;28;20360;-32
2021/10/24 07:18:55;;;;;;;0.30;0.30;;;;;;;25.47;33.26;97468.66;5070310;28;20419;-31
2021/10/24 07:21:20;;;;;;;0.40;0.40;;;;;;;25.48;33.30;97475.63;5073026;28;20707;-32
2021/10/24 07:23:46;;;;;;;0.30;0.30;;;;;;;25.48;33.48;97473.00;5074501;28;20023;-31
2021/10/24 07:26:11;;;;;;;1.05;0.43;;;;;;;25.49;33.33;97477.34;5073582;28;20039;-34
2021/10/24 07:28:36;;;;;;;0.55;0.30;;;;;;;25.50;33.48;97484.28;5071328;28;20028;-30
2021/10/24 07:31:02;;;;;;;0.32;0.30;;;;;;;25.51;33.29;97485.16;5069041;28;20028;-33
2021/10/24 07:33:27;;;;;;;0.40;0.40;;;;;;;25.50;33.44;97479.03;5071678;28;20020;-30
2021/10/24 07:35:53;;;;;;;0.22;0.22;;;;;;;25.51;33.32;97485.97;5069404;28;20486;-33
2021/10/24 07:38:18;;;;;;;0.50;0.50;;;;;;;25.52;33.33;97477.19;5071813;28;20069;-28
2021/10/24 07:40:46;;;;;;;0.40;0.40;;;;;;;25.54;33.48;97482.38;5068153;28;20024;-32
2021/10/24 07:43:12;;;;;;;0.40;0.40;;;;;;;25.53;33.39;97478.03;5073542;28;20034;-32
2021/10/24 07:45:38;;;;;;;0.43;0.40;;;;;;;25.55;33.42;97478.84;5068088;28;20078;-29
2021/10/24 07:48:04;;;;;;;0.32;0.32;;;;;;;25.56;33.44;97473.56;5069903;28;20036;-30
2021/10/24 07:50:30;;;;;;;0.40;0.30;;;;;;;25.57;33.38;97483.16;5070063;28;20036;-29
2021/10/24 07:52:55;;;;;;;0.40;0.40;;;;;;;25.57;33.40;97480.53;5070044;28;20082;-28
2021/10/24 07:55:21;;;;;;;0.50;0.40;;;;;;;25.60;33.54;97476.06;5071168;28;20106;-32
2021/10/24 07:57:46;;;;;;;0.45;0.40;;;;;;;25.61;33.44;97475.13;5071024;28;20082;-34
2021/10/24 08:00:12;;;;;;;0.40;0.40;;;;;;;25.61;33.52;97476.00;5071094;28;20125;-32
2021/10/24 08:02:37;;;;;;;0.35;0.30;;;;;;;25.63;33.31;97478.56;5072718;28;20498;-30
2021/10/24 08:05:04;;;;;;;0.35;0.30;;;;;;;25.63;33.37;97478.56;5072474;28;20031;-33
2021/10/24 08:07:30;;;;;;;0.30;0.30;;;;;;;25.64;33.51;97485.50;5069908;28;20050;-32
2021/10/24 08:09:55;;;;;;;0.40;0.35;;;;;;;25.64;33.54;97470.63;5053601;28;20032;-31
2021/10/24 08:12:21;;;;;;;0.38;0.38;;;;;;;25.67;33.44;97474.91;5071568;28;20548;-30
2021/10/24 08:14:47;;;;;;;0.52;0.50;;;;;;;25.66;33.58;97468.78;5072971;28;20574;-34
2021/10/24 08:17:12;;;;;;;0.70;0.40;;;;;;;25.68;33.31;97476.59;5070133;28;20050;-30
2021/10/24 08:19:39;;;;;;;0.60;0.40;;;;;;;25.69;33.39;97465.16;5072422;28;20029;-31
2021/10/24 08:22:05;;;;;;;0.25;0.25;;;;;;;25.70;33.57;97469.50;5070160;28;20092;-32
2021/10/24 08:24:31;;;;;;;0.30;0.30;;;;;;;25.70;33.72;97459.00;5069642;28;20012;-33
2021/10/24 08:26:56;;;;;;;0.35;0.35;;;;;;;25.71;33.69;97463.34;5071059;28;20093;-28
2021/10/24 08:29:22;;;;;;;0.30;0.30;;;;;;;25.71;33.70;97465.97;5070100;28;20032;-32
2021/10/24 08:31:52;;;;;;;0.45;0.40;;;;;;;25.72;33.65;97458.94;5068797;28;20036;-32
2021/10/24 08:34:17;;;;;;;0.40;0.32;;;;;;;25.73;33.77;97466.75;5070494;28;20040;-35
2021/10/24 08:36:43;;;;;;;0.68;0.40;;;;;;;25.74;33.73;97463.19;5069649;28;20115;-31
2021/10/24 08:39:09;;;;;;;0.88;0.47;;;;;;;25.74;33.78;97465.81;5069939;28;20032;-32
2021/10/24 08:41:34;;;;;;;0.30;0.30;;;;;;;25.75;33.73;97467.56;5070878;28;20038;-29
2021/10/24 08:44:00;;;;;;;0.43;0.20;;;;;;;25.76;33.79;97474.50;5049967;28;20032;-30
2021/10/24 08:46:26;;;;;;;0.45;0.35;;;;;;;25.77;33.77;97462.22;5069640;28;20031;-32
2021/10/24 08:48:51;;;;;;;0.93;0.43;;;;;;;25.77;33.83;97463.06;5069227;28;20537;-30
2021/10/24 08:51:17;;;;;;;0.50;0.35;;;;;;;25.79;33.87;97463.88;5070694;28;20062;-32
2021/10/24 08:53:43;;;;;;;0.50;0.30;;;;;;;25.80;33.90;97470.84;5067686;28;20043;-29
2021/10/24 08:56:14;;;;;;;0.75;0.40;;;;;;;25.81;33.77;97462.03;5069124;28;20395;-32
2021/10/24 08:58:39;;;;;;;0.50;0.50;;;;;;;25.82;33.82;97461.09;5070348;28;20390;-30
2021/10/24 09:01:05;;;;;;;0.38;0.38;;;;;;;25.83;33.90;97460.19;5070615;28;20031;-29
2021/10/24 09:03:30;;;;;;;0.55;0.40;;;;;;;25.83;33.90;97462.81;5065549;28;20041;-33
2021/10/24 09:05:56;;;;;;;0.43;0.20;;;;;;;25.85;33.87;97459.28;5069643;28;20040;-30
2021/10/24 09:08:22;;;;;;;0.40;0.40;;;;;;;25.87;33.78;97460.91;5072618;28;20031;-27
2021/10/24 09:10:55;;;;;;;0.55;0.50;;;;;;;25.88;33.87;97456.50;5084625;28;20038;-31
2021/10/24 09:13:26;;;;;;;0.50;0.50;;;;;;;25.88;33.76;97462.63;5069534;28;20035;-33
2021/10/24 09:16:02;;;;;;;0.30;0.30;;;;;;;25.89;33.82;97453.81;5068881;28;20530;-31
2021/10/24 09:18:31;;;;;;;0.65;0.40;;;;;;;25.91;33.77;97461.63;5068985;28;20973;-30
2021/10/24 09:20:58;;;;;;;0.35;0.35;;;;;;;25.91;33.72;97445.88;5069413;28;20085;-30
2021/10/24 09:23:29;;;;;;;0.60;0.30;;;;;;;25.92;33.74;97452.84;5072815;28;20020;-30
2021/10/24 09:25:56;;;;;;;0.60;0.50;;;;;;;25.93;33.88;97446.69;5076371;28;20086;-28
2021/10/24 09:28:25;;;;;;;0.30;0.30;;;;;;;25.93;33.75;97444.06;5068589;28;20024;-31
2021/10/24 09:31:02;;;;;;;0.50;0.30;;;;;;;25.94;33.91;97445.75;5052761;28;20040;-32
2021/10/24 09:33:43;;;;;;;0.47;0.38;;;;;;;25.94;33.92;97445.75;5070877;28;20166;-32
2021/10/24 09:36:09;;;;;;;0.22;0.22;;;;;;;25.95;33.63;97447.44;5084182;27;20020;-30
2021/10/24 09:38:35;;;;;;;0.38;0.38;;;;;;;25.95;33.93;97448.31;5067203;28;20737;-31
2021/10/24 09:41:00;;;;;;;0.40;0.40;;;;;;;25.96;33.97;97438.66;5068890;28;20036;-27
2021/10/24 09:43:31;;;;;;;0.45;0.40;;;;;;;25.95;33.89;97442.19;5069522;28;20038;-32
2021/10/24 09:45:56;;;;;;;0.40;0.40;;;;;;;25.96;33.82;97449.16;5069275;28;20108;-30
2021/10/24 09:48:23;;;;;;;0.30;0.30;;;;;;;25.98;33.92;97452.59;5070769;28;20146;-32
2021/10/24 09:50:53;;;;;;;0.20;0.20;;;;;;;25.99;33.88;97446.41;5069600;28;20020;-31
2021/10/24 09:53:23;;;;;;;0.43;0.30;;;;;;;25.99;34.02;97433.28;5069111;28;20024;-30
2021/10/24 09:55:55;;;;;;;0.45;0.40;;;;;;;26.00;33.98;97434.97;5068087;28;20020;-32
2021/10/24 09:58:24;;;;;;;0.43;0.30;;;;;;;26.01;33.92;97439.28;5070250;28;20093;-29
2021/10/24 10:00:49;;;;;;;0.20;0.20;;;;;;;26.01;34.04;97431.41;5052771;28;20036;-35
2021/10/24 10:03:15;;;;;;;0.30;0.30;;;;;;;26.00;33.98;97434.97;5066644;28;20043;-30
2021/10/24 10:05:40;;;;;;;0.30;0.30;;;;;;;26.02;33.96;97434.91;5053733;28;20025;-30
2021/10/24 10:08:07;;;;;;;0.28;0.28;;;;;;;26.03;33.95;97433.97;5069008;28;20479;-32
2021/10/24 10:10:32;;;;;;;0.45;0.45;;;;;;;26.03;34.12;97434.84;5067852;28;20935;-30
2021/10/24 10:13:00;;;;;;;0.38;0.30;;;;;;;26.02;33.98;97435.78;5069217;28;20024;-29
2021/10/24 10:15:29;;;;;;;0.40;0.30;;;;;;;26.03;34.08;97433.97;5085919;28;20406;-30
2021/10/24 10:18:00;;;;;;;0.20;0.20;;;;;;;26.02;34.12;97433.16;5069311;28;20051;-31
2021/10/24 10:20:27;;;;;;;0.30;0.30;;;;;;;26.03;34.10;97428.72;5077633;28;20023;-30
2021/10/24 10:23:06;;;;;;;0.25;0.25;;;;;;;26.02;34.22;97433.16;5068178;28;20038;-34
2021/10/24 10:25:36;;;;;;;0.30;0.30;;;;;;;26.03;34.17;97423.47;5067702;28;20028;-32
2021/10/24 10:28:01;;;;;;;0.40;0.35;;;;;;;26.03;34.07;97426.97;5066946;28;20538;-32
2021/10/24 10:30:40;;;;;;;0.30;0.30;;;;;;;26.02;34.13;97420.00;5069273;28;20046;-30
2021/10/24 10:33:28;;;;;;;0.32;0.30;;;;;;;26.03;34.13;97419.09;5069286;28;20103;-33
2021/10/24 10:35:54;;;;;;;0.47;0.30;;;;;;;26.03;34.19;97424.34;5066495;28;20158;-30
2021/10/24 10:38:39;;;;;;;0.60;0.43;;;;;;;26.03;34.13;97418.22;5050880;28;20021;-31
2021/10/24 10:41:06;;;;;;;1.08;0.30;;;;;;;26.03;34.08;97419.09;5069254;28;20028;-31
2021/10/24 10:43:32;;;;;;;0.63;0.30;;;;;;;26.04;34.11;97415.53;5076693;28;20016;-30
2021/10/24 10:46:02;;;;;;;0.40;0.30;;;;;;;26.03;34.27;97408.59;5068779;28;20591;-31
2021/10/24 10:48:41;;;;;;;0.40;0.40;;;;;;;26.04;34.30;97415.53;5068282;28;20027;-33
2021/10/24 10:51:19;;;;;;;0.57;0.30;;;;;;;26.04;34.21;97410.28;5074438;28;20055;-35
2021/10/24 10:53:47;;;;;;;0.35;0.30;;;;;;;26.04;34.30;97399.78;5068799;28;20522;-31
2021/10/24 10:56:15;;;;;;;0.35;0.30;;;;;;;26.05;34.32;97411.97;5066785;28;20074;-34
2021/10/24 10:58:43;;;;;;;0.25;0.25;;;;;;;26.05;34.23;97404.09;5049370;28;20028;-32
2021/10/24 11:01:27;;;;;;;0.20;0.20;;;;;;;26.05;34.23;97400.63;5067298;28;20331;-30
2021/10/24 11:03:57;;;;;;;0.30;0.30;;;;;;;26.05;34.39;97404.09;5067368;28;20725;-32
2021/10/24 11:06:22;;;;;;;0.30;0.30;;;;;;;26.05;34.30;97396.22;5071400;28;20050;-29
2021/10/24 11:08:51;;;;;;;0.25;0.22;;;;;;;26.05;34.35;97396.22;5073059;28;20498;-35
2021/10/24 11:11:45;;;;;;;0.47;0.30;;;;;;;26.06;34.46;97397.09;5068418;28;20058;-32
2021/10/24 11:14:16;;;;;;;0.32;0.20;;;;;;;26.06;34.17;97397.94;5069217;28;20123;-33
2021/10/24 11:16:48;;;;;;;0.68;0.40;;;;;;;26.05;34.20;97385.72;5067645;28;20032;-31
2021/10/24 11:21:52;;;;;;;0.30;0.30;;;;;;;26.07;34.34;97383.03;5066134;28;20071;-28
2021/10/24 11:24:18;;;;;;;1.30;0.30;;;;;;;26.06;34.22;97376.06;5066874;28;20113;-34
2021/10/24 11:26:43;;;;;;;0.32;0.30;;;;;;;26.07;34.28;97368.13;5083373;28;20028;-34
2021/10/24 11:29:08;;;;;;;0.20;0.20;;;;;;;26.07;34.30;97373.38;5067140;28;20094;-33
2021/10/24 11:31:34;;;;;;;0.30;0.30;;;;;;;26.07;34.34;97368.13;5068938;28;20028;-33
2021/10/24 11:33:59;;;;;;;0.22;0.22;;;;;;;26.07;34.34;97373.38;5067035;28;20028;-34